KFCS

Butts AAF (Fort Carson) Airport

Fort Carson, Colorado, USA
METAR KFCS 222358Z AUTO 16007KT 10SM FEW110 SCT160 16/M03 A3019 RMK AO2 SLP212 T01611029 10217 20161 51004 $
Observed Flight Rules
Oct-22 @ 23:58 UTC (an hour ago) Visual Flight Rules
Wind Visibility Clouds
160° at 7 knots 10 miles
  • Few at 11,000' AGL
  • Scattered at 16,000' AGL
Temperatures Readings
Current 16°C / 61°F
Dewpoint -3°C / 27°F
Humidity 27%
Altimeter 30.19" Hg
Pressure 1021.2 hPa
Elevation 1789
METAR KFCS 222358Z AUTO 16007KT 10SM FEW110 SCT160 16/M03 A3019 RMK AO2 SLP212 T01611029 10217 20161 51004 $
Observed Flight Rules
Oct-22 @ 23:58 UTC
(an hour ago)
VFR
Wind Visibility
160° at 7 knots 10 miles
Clouds
  • Few at 11,000' AGL
  • Scattered at 16,000' AGL
Temperature Dewpoint
16°C / 61°F -3°C / 27°F
Humidity Altimeter Pressure
27% 30.19" Hg 1021.2 hPa